Decoded Metar for KDLF (DEL RIO in TX, USA) (IATA:DLF) | Meteo·Mobile Aviation Weather
aviador You're here:

KDLF Decoded Metar

DEL RIO in TX, USA
Report Time2018-10-18 08:41:00
UTC Time2018-10-18 08:54:35
Flight Rules mvfr MVFR
Wind320° at 09 kt
W.Decomp.*RWY 31: 9.0 kt HW 0.5 kt RCW
W.Rank320° ranks 10
Current wind is above 320° avg. (8.7)
Visibility9999 m
Phenomena:N/A
Clouds:Few 007 Hf
Overcast 014 Hf
Expected CloudBase > 800 ft AGL from Temp-Dew spread
Ceiling1,400 ft
Temp11°C (ISA -2)
Dew Point09°C (88% RH)
AAT7.6°C
QNH1026 hPa
Density Alt584 ft
Elevation1,083 ft
Report Wrong Elevation
Raw Report
SPECI KDLF 180841Z AUTO 32009KT 10SM FEW007 OVC014 11/09 A3030 RMK
AO2 SLP260=

Extra information for KDLF:More info

Metar Taf Metar & Taf Last 4 Metars F.Rules Stats Wind Profile Meteogram Temp Stats Airport Information Weather charts Add Link Nearby VenuesMetar ALERT Operation Metar Decoded Social comments

AIRNAV info for KDLF